sensor_id;sensor_type;location;lat;lon;timestamp;P1;durP1;ratioP1;P2;durP2;ratioP2
38843;SDS011;24596;48.080;8.362;2023-10-13T00:00:25;10.55;;;4.07;;
38843;SDS011;24596;48.080;8.362;2023-10-13T00:02:51;14.25;;;4.55;;
38843;SDS011;24596;48.080;8.362;2023-10-13T00:05:17;10.27;;;3.42;;
38843;SDS011;24596;48.080;8.362;2023-10-13T00:07:43;11.00;;;4.13;;
38843;SDS011;24596;48.080;8.362;2023-10-13T00:10:08;15.10;;;4.10;;
38843;SDS011;24596;48.080;8.362;2023-10-13T00:12:43;15.32;;;4.50;;
38843;SDS011;24596;48.080;8.362;2023-10-13T00:15:15;12.05;;;4.10;;
38843;SDS011;24596;48.080;8.362;2023-10-13T00:17:41;11.82;;;3.60;;
38843;SDS011;24596;48.080;8.362;2023-10-13T00:20:07;15.35;;;4.13;;
38843;SDS011;24596;48.080;8.362;2023-10-13T00:22:52;9.48;;;3.72;;
38843;SDS011;24596;48.080;8.362;2023-10-13T00:25:18;10.95;;;3.90;;
38843;SDS011;24596;48.080;8.362;2023-10-13T00:27:51;9.90;;;3.92;;
38843;SDS011;24596;48.080;8.362;2023-10-13T00:30:17;13.23;;;4.32;;
38843;SDS011;24596;48.080;8.362;2023-10-13T00:32:46;10.60;;;4.03;;
38843;SDS011;24596;48.080;8.362;2023-10-13T00:35:16;12.82;;;4.10;;
38843;SDS011;24596;48.080;8.362;2023-10-13T00:37:54;8.20;;;3.88;;
38843;SDS011;24596;48.080;8.362;2023-10-13T00:40:20;11.80;;;3.97;;
38843;SDS011;24596;48.080;8.362;2023-10-13T00:43:00;10.48;;;3.95;;
38843;SDS011;24596;48.080;8.362;2023-10-13T00:48:33;13.52;;;4.00;;
38843;SDS011;24596;48.080;8.362;2023-10-13T00:51:03;11.70;;;4.65;;
38843;SDS011;24596;48.080;8.362;2023-10-13T00:53:31;13.02;;;4.30;;
38843;SDS011;24596;48.080;8.362;2023-10-13T00:56:02;12.55;;;3.78;;
38843;SDS011;24596;48.080;8.362;2023-10-13T00:58:32;9.10;;;4.10;;
38843;SDS011;24596;48.080;8.362;2023-10-13T01:00:59;12.77;;;4.63;;
38843;SDS011;24596;48.080;8.362;2023-10-13T01:03:42;11.32;;;4.63;;
38843;SDS011;24596;48.080;8.362;2023-10-13T01:06:08;10.05;;;4.07;;
38843;SDS011;24596;48.080;8.362;2023-10-13T01:08:37;9.70;;;4.03;;
38843;SDS011;24596;48.080;8.362;2023-10-13T01:11:03;9.07;;;3.75;;
38843;SDS011;24596;48.080;8.362;2023-10-13T01:13:32;12.20;;;4.43;;
38843;SDS011;24596;48.080;8.362;2023-10-13T01:16:01;13.23;;;4.13;;
38843;SDS011;24596;48.080;8.362;2023-10-13T01:18:26;11.55;;;4.20;;
38843;SDS011;24596;48.080;8.362;2023-10-13T01:20:53;9.25;;;4.22;;
38843;SDS011;24596;48.080;8.362;2023-10-13T01:23:23;12.27;;;3.97;;
38843;SDS011;24596;48.080;8.362;2023-10-13T01:25:53;13.70;;;4.45;;
38843;SDS011;24596;48.080;8.362;2023-10-13T01:28:19;13.35;;;4.97;;
38843;SDS011;24596;48.080;8.362;2023-10-13T01:30:44;11.77;;;4.15;;
38843;SDS011;24596;48.080;8.362;2023-10-13T01:33:14;11.20;;;4.03;;
38843;SDS011;24596;48.080;8.362;2023-10-13T01:35:40;13.32;;;4.55;;
38843;SDS011;24596;48.080;8.362;2023-10-13T01:38:12;9.40;;;4.07;;
38843;SDS011;24596;48.080;8.362;2023-10-13T01:40:38;11.15;;;4.85;;
38843;SDS011;24596;48.080;8.362;2023-10-13T01:43:03;10.70;;;4.88;;
38843;SDS011;24596;48.080;8.362;2023-10-13T01:48:00;14.17;;;5.57;;
38843;SDS011;24596;48.080;8.362;2023-10-13T01:50:26;19.33;;;5.00;;
38843;SDS011;24596;48.080;8.362;2023-10-13T01:52:55;14.90;;;5.15;;
38843;SDS011;24596;48.080;8.362;2023-10-13T01:55:39;10.57;;;4.60;;
38843;SDS011;24596;48.080;8.362;2023-10-13T01:58:09;14.10;;;5.37;;
38843;SDS011;24596;48.080;8.362;2023-10-13T02:00:39;12.75;;;5.10;;
38843;SDS011;24596;48.080;8.362;2023-10-13T02:03:07;15.77;;;6.03;;
38843;SDS011;24596;48.080;8.362;2023-10-13T02:05:39;12.15;;;5.00;;
38843;SDS011;24596;48.080;8.362;2023-10-13T02:08:05;14.75;;;5.13;;
38843;SDS011;24596;48.080;8.362;2023-10-13T02:10:31;9.77;;;4.40;;
38843;SDS011;24596;48.080;8.362;2023-10-13T02:12:56;11.02;;;4.68;;
38843;SDS011;24596;48.080;8.362;2023-10-13T02:15:21;16.58;;;5.40;;
38843;SDS011;24596;48.080;8.362;2023-10-13T02:17:51;10.77;;;4.93;;
38843;SDS011;24596;48.080;8.362;2023-10-13T02:20:17;10.88;;;4.72;;
38843;SDS011;24596;48.080;8.362;2023-10-13T02:22:42;11.35;;;4.90;;
38843;SDS011;24596;48.080;8.362;2023-10-13T02:25:17;13.45;;;4.75;;
38843;SDS011;24596;48.080;8.362;2023-10-13T02:28:00;12.93;;;5.05;;
38843;SDS011;24596;48.080;8.362;2023-10-13T02:30:25;13.05;;;5.80;;
38843;SDS011;24596;48.080;8.362;2023-10-13T02:32:53;15.57;;;5.18;;
38843;SDS011;24596;48.080;8.362;2023-10-13T02:35:20;11.32;;;4.75;;
38843;SDS011;24596;48.080;8.362;2023-10-13T02:37:55;12.23;;;5.28;;
38843;SDS011;24596;48.080;8.362;2023-10-13T02:40:22;12.07;;;5.28;;
38843;SDS011;24596;48.080;8.362;2023-10-13T02:42:48;17.77;;;5.88;;
38843;SDS011;24596;48.080;8.362;2023-10-13T02:45:13;12.40;;;5.38;;
38843;SDS011;24596;48.080;8.362;2023-10-13T02:47:39;13.45;;;5.22;;
38843;SDS011;24596;48.080;8.362;2023-10-13T02:50:04;9.15;;;4.22;;
38843;SDS011;24596;48.080;8.362;2023-10-13T02:52:37;12.80;;;5.00;;
38843;SDS011;24596;48.080;8.362;2023-10-13T02:55:06;13.30;;;5.97;;
38843;SDS011;24596;48.080;8.362;2023-10-13T02:57:35;10.65;;;4.97;;
38843;SDS011;24596;48.080;8.362;2023-10-13T03:00:00;13.75;;;5.70;;
38843;SDS011;24596;48.080;8.362;2023-10-13T03:02:37;13.65;;;5.28;;
38843;SDS011;24596;48.080;8.362;2023-10-13T03:05:08;14.93;;;5.90;;
38843;SDS011;24596;48.080;8.362;2023-10-13T03:07:34;12.43;;;5.88;;
38843;SDS011;24596;48.080;8.362;2023-10-13T03:10:02;11.52;;;5.57;;
38843;SDS011;24596;48.080;8.362;2023-10-13T03:12:35;11.98;;;5.03;;
38843;SDS011;24596;48.080;8.362;2023-10-13T03:15:01;13.38;;;5.57;;
38843;SDS011;24596;48.080;8.362;2023-10-13T03:17:43;12.98;;;5.93;;
38843;SDS011;24596;48.080;8.362;2023-10-13T03:20:18;15.10;;;6.03;;
38843;SDS011;24596;48.080;8.362;2023-10-13T03:22:47;12.35;;;5.40;;
38843;SDS011;24596;48.080;8.362;2023-10-13T03:25:13;11.05;;;5.07;;
38843;SDS011;24596;48.080;8.362;2023-10-13T03:27:46;13.95;;;5.40;;
38843;SDS011;24596;48.080;8.362;2023-10-13T03:30:17;13.40;;;5.63;;
38843;SDS011;24596;48.080;8.362;2023-10-13T03:32:43;11.95;;;5.28;;
38843;SDS011;24596;48.080;8.362;2023-10-13T03:35:11;13.23;;;6.63;;
38843;SDS011;24596;48.080;8.362;2023-10-13T03:37:39;13.50;;;5.07;;
38843;SDS011;24596;48.080;8.362;2023-10-13T03:40:06;15.30;;;5.45;;
38843;SDS011;24596;48.080;8.362;2023-10-13T03:42:52;11.25;;;5.70;;
38843;SDS011;24596;48.080;8.362;2023-10-13T03:45:41;16.13;;;6.25;;
38843;SDS011;24596;48.080;8.362;2023-10-13T03:48:15;14.25;;;5.85;;
38843;SDS011;24596;48.080;8.362;2023-10-13T03:50:50;12.43;;;5.13;;
38843;SDS011;24596;48.080;8.362;2023-10-13T03:53:34;16.05;;;6.32;;
38843;SDS011;24596;48.080;8.362;2023-10-13T03:56:01;14.70;;;5.50;;
38843;SDS011;24596;48.080;8.362;2023-10-13T03:58:53;12.45;;;4.78;;
38843;SDS011;24596;48.080;8.362;2023-10-13T04:01:41;15.30;;;5.65;;
38843;SDS011;24596;48.080;8.362;2023-10-13T04:04:10;16.88;;;6.25;;
38843;SDS011;24596;48.080;8.362;2023-10-13T04:06:39;15.80;;;5.32;;
38843;SDS011;24596;48.080;8.362;2023-10-13T04:09:17;11.77;;;5.30;;
38843;SDS011;24596;48.080;8.362;2023-10-13T04:12:04;13.60;;;5.65;;
38843;SDS011;24596;48.080;8.362;2023-10-13T04:14:30;10.48;;;5.45;;
38843;SDS011;24596;48.080;8.362;2023-10-13T04:17:14;13.77;;;5.70;;
38843;SDS011;24596;48.080;8.362;2023-10-13T04:19:43;14.30;;;5.80;;
38843;SDS011;24596;48.080;8.362;2023-10-13T04:22:27;15.75;;;5.78;;
38843;SDS011;24596;48.080;8.362;2023-10-13T04:25:13;9.18;;;5.50;;
38843;SDS011;24596;48.080;8.362;2023-10-13T04:27:57;12.52;;;5.22;;
38843;SDS011;24596;48.080;8.362;2023-10-13T04:30:47;11.48;;;5.68;;
38843;SDS011;24596;48.080;8.362;2023-10-13T04:33:13;13.30;;;5.35;;
38843;SDS011;24596;48.080;8.362;2023-10-13T04:38:38;12.60;;;5.25;;
38843;SDS011;24596;48.080;8.362;2023-10-13T04:41:20;11.75;;;5.68;;
38843;SDS011;24596;48.080;8.362;2023-10-13T04:43:48;12.23;;;6.65;;
38843;SDS011;24596;48.080;8.362;2023-10-13T04:46:20;12.98;;;6.15;;
38843;SDS011;24596;48.080;8.362;2023-10-13T04:49:19;13.18;;;5.47;;
38843;SDS011;24596;48.080;8.362;2023-10-13T04:52:00;13.32;;;4.97;;
38843;SDS011;24596;48.080;8.362;2023-10-13T04:54:35;13.55;;;6.07;;
38843;SDS011;24596;48.080;8.362;2023-10-13T04:57:21;12.73;;;6.25;;
38843;SDS011;24596;48.080;8.362;2023-10-13T05:00:07;14.20;;;5.30;;
38843;SDS011;24596;48.080;8.362;2023-10-13T05:02:36;9.93;;;5.55;;
38843;SDS011;24596;48.080;8.362;2023-10-13T05:05:01;17.05;;;6.15;;
38843;SDS011;24596;48.080;8.362;2023-10-13T05:07:30;19.45;;;5.80;;
38843;SDS011;24596;48.080;8.362;2023-10-13T05:10:13;16.98;;;6.05;;
38843;SDS011;24596;48.080;8.362;2023-10-13T05:12:57;11.98;;;5.53;;
38843;SDS011;24596;48.080;8.362;2023-10-13T05:15:46;14.38;;;5.97;;
38843;SDS011;24596;48.080;8.362;2023-10-13T05:18:30;14.77;;;5.57;;
38843;SDS011;24596;48.080;8.362;2023-10-13T05:21:14;13.65;;;5.75;;
38843;SDS011;24596;48.080;8.362;2023-10-13T05:23:58;15.93;;;5.93;;
38843;SDS011;24596;48.080;8.362;2023-10-13T05:26:47;11.52;;;5.90;;
38843;SDS011;24596;48.080;8.362;2023-10-13T05:29:30;14.07;;;5.90;;
38843;SDS011;24596;48.080;8.362;2023-10-13T05:32:15;12.85;;;5.72;;
38843;SDS011;24596;48.080;8.362;2023-10-13T05:34:59;13.27;;;6.15;;
38843;SDS011;24596;48.080;8.362;2023-10-13T05:37:42;15.48;;;5.97;;
38843;SDS011;24596;48.080;8.362;2023-10-13T05:40:26;16.15;;;6.05;;
38843;SDS011;24596;48.080;8.362;2023-10-13T05:43:11;13.73;;;5.90;;
38843;SDS011;24596;48.080;8.362;2023-10-13T05:45:57;16.65;;;6.57;;
38843;SDS011;24596;48.080;8.362;2023-10-13T05:48:44;16.73;;;5.93;;
38843;SDS011;24596;48.080;8.362;2023-10-13T05:51:25;15.00;;;5.95;;
38843;SDS011;24596;48.080;8.362;2023-10-13T05:54:09;14.23;;;5.82;;
38843;SDS011;24596;48.080;8.362;2023-10-13T05:59:24;14.63;;;5.78;;
38843;SDS011;24596;48.080;8.362;2023-10-13T06:02:08;10.95;;;5.55;;
38843;SDS011;24596;48.080;8.362;2023-10-13T06:04:52;14.50;;;5.45;;
38843;SDS011;24596;48.080;8.362;2023-10-13T06:07:36;12.55;;;5.38;;
38843;SDS011;24596;48.080;8.362;2023-10-13T06:10:20;11.90;;;5.63;;
38843;SDS011;24596;48.080;8.362;2023-10-13T06:13:04;13.90;;;5.95;;
38843;SDS011;24596;48.080;8.362;2023-10-13T06:15:48;16.38;;;5.40;;
38843;SDS011;24596;48.080;8.362;2023-10-13T06:18:32;10.52;;;5.25;;
38843;SDS011;24596;48.080;8.362;2023-10-13T06:21:16;12.75;;;5.60;;
38843;SDS011;24596;48.080;8.362;2023-10-13T06:24:00;15.80;;;6.68;;
38843;SDS011;24596;48.080;8.362;2023-10-13T06:26:47;15.05;;;6.82;;
38843;SDS011;24596;48.080;8.362;2023-10-13T06:29:31;13.25;;;7.05;;
38843;SDS011;24596;48.080;8.362;2023-10-13T06:31:56;11.95;;;6.68;;
38843;SDS011;24596;48.080;8.362;2023-10-13T06:34:23;15.63;;;7.22;;
38843;SDS011;24596;48.080;8.362;2023-10-13T06:37:02;14.27;;;6.30;;
38843;SDS011;24596;48.080;8.362;2023-10-13T06:39:27;16.13;;;6.35;;
38843;SDS011;24596;48.080;8.362;2023-10-13T06:42:02;15.38;;;6.80;;
38843;SDS011;24596;48.080;8.362;2023-10-13T06:44:28;16.25;;;7.13;;
38843;SDS011;24596;48.080;8.362;2023-10-13T06:46:57;19.20;;;7.57;;
38843;SDS011;24596;48.080;8.362;2023-10-13T06:49:22;16.38;;;7.25;;
38843;SDS011;24596;48.080;8.362;2023-10-13T06:51:48;16.38;;;6.47;;
38843;SDS011;24596;48.080;8.362;2023-10-13T06:54:14;15.27;;;6.80;;
38843;SDS011;24596;48.080;8.362;2023-10-13T06:56:45;14.13;;;6.28;;
38843;SDS011;24596;48.080;8.362;2023-10-13T06:59:11;16.25;;;7.03;;
38843;SDS011;24596;48.080;8.362;2023-10-13T07:01:38;14.70;;;6.97;;
38843;SDS011;24596;48.080;8.362;2023-10-13T07:04:06;21.15;;;7.00;;
38843;SDS011;24596;48.080;8.362;2023-10-13T07:06:38;16.73;;;6.57;;
38843;SDS011;24596;48.080;8.362;2023-10-13T07:09:07;13.65;;;6.60;;
38843;SDS011;24596;48.080;8.362;2023-10-13T07:11:40;12.50;;;6.13;;
38843;SDS011;24596;48.080;8.362;2023-10-13T07:14:08;17.52;;;7.95;;
38843;SDS011;24596;48.080;8.362;2023-10-13T07:16:42;19.33;;;7.20;;
38843;SDS011;24596;48.080;8.362;2023-10-13T07:19:11;16.13;;;7.13;;
38843;SDS011;24596;48.080;8.362;2023-10-13T07:21:41;18.58;;;7.75;;
38843;SDS011;24596;48.080;8.362;2023-10-13T07:24:10;18.15;;;7.63;;
38843;SDS011;24596;48.080;8.362;2023-10-13T07:26:36;14.93;;;7.55;;
38843;SDS011;24596;48.080;8.362;2023-10-13T07:29:08;17.65;;;7.20;;
38843;SDS011;24596;48.080;8.362;2023-10-13T07:31:34;17.17;;;7.65;;
38843;SDS011;24596;48.080;8.362;2023-10-13T07:33:59;13.93;;;7.90;;
38843;SDS011;24596;48.080;8.362;2023-10-13T07:36:35;12.85;;;6.68;;
38843;SDS011;24596;48.080;8.362;2023-10-13T07:39:04;18.35;;;6.88;;
38843;SDS011;24596;48.080;8.362;2023-10-13T07:41:48;21.88;;;6.90;;
38843;SDS011;24596;48.080;8.362;2023-10-13T07:46:49;14.77;;;5.40;;
38843;SDS011;24596;48.080;8.362;2023-10-13T07:49:22;13.82;;;5.65;;
38843;SDS011;24596;48.080;8.362;2023-10-13T07:51:47;14.57;;;4.93;;
38843;SDS011;24596;48.080;8.362;2023-10-13T07:54:16;14.63;;;5.35;;
38843;SDS011;24596;48.080;8.362;2023-10-13T07:56:47;10.18;;;3.72;;
38843;SDS011;24596;48.080;8.362;2023-10-13T07:59:12;14.80;;;4.38;;
38843;SDS011;24596;48.080;8.362;2023-10-13T08:01:38;7.80;;;2.88;;
38843;SDS011;24596;48.080;8.362;2023-10-13T08:04:08;8.88;;;2.92;;
38843;SDS011;24596;48.080;8.362;2023-10-13T08:06:33;12.40;;;2.67;;
38843;SDS011;24596;48.080;8.362;2023-10-13T08:09:01;12.50;;;3.30;;
38843;SDS011;24596;48.080;8.362;2023-10-13T08:11:45;8.82;;;2.72;;
38843;SDS011;24596;48.080;8.362;2023-10-13T08:14:10;7.00;;;2.75;;
38843;SDS011;24596;48.080;8.362;2023-10-13T08:16:48;11.68;;;2.95;;
38843;SDS011;24596;48.080;8.362;2023-10-13T08:19:25;10.13;;;2.85;;
38843;SDS011;24596;48.080;8.362;2023-10-13T08:21:58;11.27;;;2.80;;
38843;SDS011;24596;48.080;8.362;2023-10-13T08:24:46;9.02;;;3.05;;
38843;SDS011;24596;48.080;8.362;2023-10-13T08:27:12;13.48;;;3.13;;
38843;SDS011;24596;48.080;8.362;2023-10-13T08:29:41;10.90;;;3.38;;
38843;SDS011;24596;48.080;8.362;2023-10-13T08:32:18;10.95;;;3.15;;
38843;SDS011;24596;48.080;8.362;2023-10-13T08:34:47;11.32;;;2.90;;
38843;SDS011;24596;48.080;8.362;2023-10-13T08:37:12;11.90;;;3.03;;
38843;SDS011;24596;48.080;8.362;2023-10-13T08:39:58;11.50;;;3.13;;
38843;SDS011;24596;48.080;8.362;2023-10-13T08:42:33;11.32;;;2.80;;
38843;SDS011;24596;48.080;8.362;2023-10-13T08:50:33;12.95;;;2.95;;
38843;SDS011;24596;48.080;8.362;2023-10-13T08:53:25;11.20;;;2.60;;
38843;SDS011;24596;48.080;8.362;2023-10-13T08:55:56;10.38;;;2.85;;
38843;SDS011;24596;48.080;8.362;2023-10-13T08:58:44;12.00;;;3.13;;
38843;SDS011;24596;48.080;8.362;2023-10-13T09:04:24;9.10;;;2.65;;
38843;SDS011;24596;48.080;8.362;2023-10-13T09:09:25;8.45;;;2.72;;
38843;SDS011;24596;48.080;8.362;2023-10-13T09:12:15;9.48;;;2.95;;
38843;SDS011;24596;48.080;8.362;2023-10-13T09:14:41;8.15;;;2.40;;
38843;SDS011;24596;48.080;8.362;2023-10-13T09:17:10;12.93;;;2.97;;
38843;SDS011;24596;48.080;8.362;2023-10-13T09:19:48;10.10;;;2.80;;
38843;SDS011;24596;48.080;8.362;2023-10-13T09:22:27;13.60;;;3.20;;
38843;SDS011;24596;48.080;8.362;2023-10-13T09:24:56;7.88;;;2.80;;
38843;SDS011;24596;48.080;8.362;2023-10-13T09:27:24;9.65;;;2.70;;
38843;SDS011;24596;48.080;8.362;2023-10-13T09:29:58;12.38;;;3.85;;
38843;SDS011;24596;48.080;8.362;2023-10-13T09:32:43;8.57;;;2.60;;
38843;SDS011;24596;48.080;8.362;2023-10-13T09:35:16;10.15;;;2.65;;
38843;SDS011;24596;48.080;8.362;2023-10-13T09:37:41;10.20;;;2.95;;
38843;SDS011;24596;48.080;8.362;2023-10-13T09:40:07;9.80;;;2.92;;
38843;SDS011;24596;48.080;8.362;2023-10-13T09:42:50;10.05;;;3.40;;
38843;SDS011;24596;48.080;8.362;2023-10-13T09:45:15;10.95;;;3.33;;
38843;SDS011;24596;48.080;8.362;2023-10-13T09:47:42;7.85;;;2.70;;
38843;SDS011;24596;48.080;8.362;2023-10-13T09:50:09;9.10;;;3.05;;
38843;SDS011;24596;48.080;8.362;2023-10-13T09:52:48;9.32;;;3.10;;
38843;SDS011;24596;48.080;8.362;2023-10-13T09:55:17;8.60;;;2.75;;
38843;SDS011;24596;48.080;8.362;2023-10-13T09:57:45;9.80;;;2.92;;
38843;SDS011;24596;48.080;8.362;2023-10-13T10:00:15;11.85;;;3.08;;
38843;SDS011;24596;48.080;8.362;2023-10-13T10:03:00;9.63;;;2.80;;
38843;SDS011;24596;48.080;8.362;2023-10-13T10:05:40;6.15;;;2.42;;
38843;SDS011;24596;48.080;8.362;2023-10-13T10:08:06;12.43;;;3.15;;
38843;SDS011;24596;48.080;8.362;2023-10-13T10:10:51;8.90;;;2.47;;
38843;SDS011;24596;48.080;8.362;2023-10-13T10:13:43;7.22;;;2.83;;
38843;SDS011;24596;48.080;8.362;2023-10-13T10:18:40;8.50;;;2.90;;
38843;SDS011;24596;48.080;8.362;2023-10-13T10:21:06;8.48;;;2.58;;
38843;SDS011;24596;48.080;8.362;2023-10-13T10:23:32;9.82;;;3.20;;
38843;SDS011;24596;48.080;8.362;2023-10-13T10:26:09;9.95;;;3.10;;
38843;SDS011;24596;48.080;8.362;2023-10-13T10:28:37;9.27;;;3.20;;
38843;SDS011;24596;48.080;8.362;2023-10-13T10:31:05;8.63;;;2.70;;
38843;SDS011;24596;48.080;8.362;2023-10-13T10:33:34;9.75;;;2.80;;
38843;SDS011;24596;48.080;8.362;2023-10-13T10:36:00;8.02;;;2.90;;
38843;SDS011;24596;48.080;8.362;2023-10-13T10:38:25;8.70;;;2.75;;
38843;SDS011;24596;48.080;8.362;2023-10-13T10:41:00;8.23;;;3.25;;
38843;SDS011;24596;48.080;8.362;2023-10-13T10:43:44;7.38;;;2.80;;
38843;SDS011;24596;48.080;8.362;2023-10-13T10:46:25;9.18;;;2.72;;
38843;SDS011;24596;48.080;8.362;2023-10-13T10:48:50;9.13;;;3.15;;
38843;SDS011;24596;48.080;8.362;2023-10-13T10:51:21;8.73;;;3.63;;
38843;SDS011;24596;48.080;8.362;2023-10-13T10:53:50;9.25;;;3.20;;
38843;SDS011;24596;48.080;8.362;2023-10-13T10:56:17;11.18;;;3.15;;
38843;SDS011;24596;48.080;8.362;2023-10-13T10:58:49;8.00;;;3.25;;
38843;SDS011;24596;48.080;8.362;2023-10-13T11:01:19;7.97;;;3.30;;
38843;SDS011;24596;48.080;8.362;2023-10-13T11:03:59;7.97;;;3.20;;
38843;SDS011;24596;48.080;8.362;2023-10-13T11:06:25;7.10;;;2.85;;
38843;SDS011;24596;48.080;8.362;2023-10-13T11:09:00;7.20;;;2.60;;
38843;SDS011;24596;48.080;8.362;2023-10-13T11:11:29;9.98;;;3.33;;
38843;SDS011;24596;48.080;8.362;2023-10-13T11:13:58;9.20;;;3.15;;
38843;SDS011;24596;48.080;8.362;2023-10-13T11:16:44;10.40;;;3.40;;
38843;SDS011;24596;48.080;8.362;2023-10-13T11:19:10;8.45;;;2.88;;
38843;SDS011;24596;48.080;8.362;2023-10-13T11:21:36;10.35;;;4.45;;
38843;SDS011;24596;48.080;8.362;2023-10-13T11:24:02;7.78;;;3.20;;
38843;SDS011;24596;48.080;8.362;2023-10-13T11:26:37;11.15;;;3.08;;
38843;SDS011;24596;48.080;8.362;2023-10-13T11:29:14;11.25;;;3.00;;
38843;SDS011;24596;48.080;8.362;2023-10-13T11:31:39;7.97;;;2.88;;
38843;SDS011;24596;48.080;8.362;2023-10-13T11:34:06;9.77;;;2.90;;
38843;SDS011;24596;48.080;8.362;2023-10-13T11:36:34;8.00;;;3.13;;
38843;SDS011;24596;48.080;8.362;2023-10-13T11:39:00;7.80;;;3.13;;
38843;SDS011;24596;48.080;8.362;2023-10-13T11:41:26;9.57;;;3.20;;
38843;SDS011;24596;48.080;8.362;2023-10-13T11:43:58;9.35;;;3.08;;
38843;SDS011;24596;48.080;8.362;2023-10-13T11:46:48;7.28;;;3.03;;
38843;SDS011;24596;48.080;8.362;2023-10-13T11:51:56;7.85;;;2.80;;
38843;SDS011;24596;48.080;8.362;2023-10-13T11:54:40;9.52;;;3.15;;
38843;SDS011;24596;48.080;8.362;2023-10-13T11:57:07;8.57;;;3.10;;
38843;SDS011;24596;48.080;8.362;2023-10-13T11:59:32;9.57;;;3.00;;
38843;SDS011;24596;48.080;8.362;2023-10-13T12:02:01;8.75;;;3.00;;
38843;SDS011;24596;48.080;8.362;2023-10-13T12:04:44;14.50;;;3.05;;
38843;SDS011;24596;48.080;8.362;2023-10-13T12:07:16;8.05;;;2.50;;
38843;SDS011;24596;48.080;8.362;2023-10-13T12:09:59;8.38;;;3.13;;
38843;SDS011;24596;48.080;8.362;2023-10-13T12:12:25;7.13;;;3.00;;
38843;SDS011;24596;48.080;8.362;2023-10-13T12:14:51;8.80;;;3.22;;
38843;SDS011;24596;48.080;8.362;2023-10-13T12:19:56;5.72;;;2.47;;
38843;SDS011;24596;48.080;8.362;2023-10-13T12:22:22;7.72;;;3.00;;
38843;SDS011;24596;48.080;8.362;2023-10-13T12:24:53;7.38;;;2.40;;
38843;SDS011;24596;48.080;8.362;2023-10-13T12:27:18;10.50;;;3.20;;
38843;SDS011;24596;48.080;8.362;2023-10-13T12:29:47;5.93;;;2.50;;
38843;SDS011;24596;48.080;8.362;2023-10-13T12:32:13;9.88;;;2.90;;
38843;SDS011;24596;48.080;8.362;2023-10-13T12:34:39;8.68;;;2.72;;
38843;SDS011;24596;48.080;8.362;2023-10-13T12:37:23;7.93;;;3.30;;
38843;SDS011;24596;48.080;8.362;2023-10-13T12:40:01;5.75;;;2.50;;
38843;SDS011;24596;48.080;8.362;2023-10-13T12:42:45;7.07;;;2.80;;
38843;SDS011;24596;48.080;8.362;2023-10-13T12:45:29;9.48;;;2.58;;
38843;SDS011;24596;48.080;8.362;2023-10-13T12:48:13;7.18;;;2.53;;
38843;SDS011;24596;48.080;8.362;2023-10-13T12:51:00;8.38;;;2.53;;
38843;SDS011;24596;48.080;8.362;2023-10-13T12:53:44;7.57;;;2.78;;
38843;SDS011;24596;48.080;8.362;2023-10-13T12:56:10;5.13;;;2.42;;
38843;SDS011;24596;48.080;8.362;2023-10-13T12:58:36;8.63;;;2.65;;
38843;SDS011;24596;48.080;8.362;2023-10-13T13:01:01;12.18;;;2.90;;
38843;SDS011;24596;48.080;8.362;2023-10-13T13:03:33;8.32;;;2.97;;
38843;SDS011;24596;48.080;8.362;2023-10-13T13:05:58;8.80;;;2.60;;
38843;SDS011;24596;48.080;8.362;2023-10-13T13:08:24;9.20;;;2.50;;
38843;SDS011;24596;48.080;8.362;2023-10-13T13:10:49;8.82;;;3.13;;
38843;SDS011;24596;48.080;8.362;2023-10-13T13:13:14;9.30;;;2.30;;
38843;SDS011;24596;48.080;8.362;2023-10-13T13:15:42;9.18;;;2.67;;
38843;SDS011;24596;48.080;8.362;2023-10-13T13:18:07;5.03;;;2.50;;
38843;SDS011;24596;48.080;8.362;2023-10-13T13:20:36;6.22;;;2.65;;
38843;SDS011;24596;48.080;8.362;2023-10-13T13:23:04;6.20;;;2.58;;
38843;SDS011;24596;48.080;8.362;2023-10-13T13:25:29;6.05;;;2.25;;
38843;SDS011;24596;48.080;8.362;2023-10-13T13:27:55;8.85;;;2.78;;
38843;SDS011;24596;48.080;8.362;2023-10-13T13:30:21;10.27;;;4.25;;
38843;SDS011;24596;48.080;8.362;2023-10-13T13:32:47;5.40;;;2.47;;
38843;SDS011;24596;48.080;8.362;2023-10-13T13:35:13;8.07;;;2.72;;
38843;SDS011;24596;48.080;8.362;2023-10-13T13:37:43;7.93;;;2.58;;
38843;SDS011;24596;48.080;8.362;2023-10-13T13:40:09;8.82;;;2.53;;
38843;SDS011;24596;48.080;8.362;2023-10-13T13:45:11;9.40;;;2.78;;
38843;SDS011;24596;48.080;8.362;2023-10-13T13:47:36;12.13;;;3.08;;
38843;SDS011;24596;48.080;8.362;2023-10-13T13:50:02;7.63;;;3.00;;
38843;SDS011;24596;48.080;8.362;2023-10-13T13:52:31;5.43;;;2.58;;
38843;SDS011;24596;48.080;8.362;2023-10-13T13:55:10;7.22;;;2.80;;
38843;SDS011;24596;48.080;8.362;2023-10-13T13:57:35;7.82;;;2.50;;
38843;SDS011;24596;48.080;8.362;2023-10-13T14:00:01;7.57;;;2.33;;
38843;SDS011;24596;48.080;8.362;2023-10-13T14:02:26;9.37;;;3.00;;
38843;SDS011;24596;48.080;8.362;2023-10-13T14:04:53;8.48;;;2.90;;
38843;SDS011;24596;48.080;8.362;2023-10-13T14:07:18;11.57;;;2.83;;
38843;SDS011;24596;48.080;8.362;2023-10-13T14:09:49;7.63;;;2.90;;
38843;SDS011;24596;48.080;8.362;2023-10-13T14:12:19;8.13;;;3.00;;
38843;SDS011;24596;48.080;8.362;2023-10-13T14:14:54;10.25;;;2.97;;
38843;SDS011;24596;48.080;8.362;2023-10-13T14:17:23;7.47;;;2.47;;
38843;SDS011;24596;48.080;8.362;2023-10-13T14:19:55;6.05;;;2.90;;
38843;SDS011;24596;48.080;8.362;2023-10-13T14:22:20;8.15;;;3.03;;
38843;SDS011;24596;48.080;8.362;2023-10-13T14:24:50;7.97;;;2.58;;
38843;SDS011;24596;48.080;8.362;2023-10-13T14:27:19;9.02;;;2.47;;
38843;SDS011;24596;48.080;8.362;2023-10-13T14:29:46;7.50;;;2.70;;
38843;SDS011;24596;48.080;8.362;2023-10-13T14:32:12;7.28;;;3.13;;
38843;SDS011;24596;48.080;8.362;2023-10-13T14:34:42;12.52;;;3.30;;
38843;SDS011;24596;48.080;8.362;2023-10-13T14:37:08;9.13;;;2.80;;
38843;SDS011;24596;48.080;8.362;2023-10-13T14:39:33;6.57;;;2.72;;
38843;SDS011;24596;48.080;8.362;2023-10-13T14:42:03;8.98;;;2.50;;
38843;SDS011;24596;48.080;8.362;2023-10-13T14:44:31;8.27;;;2.90;;
38843;SDS011;24596;48.080;8.362;2023-10-13T14:46:56;10.75;;;3.15;;
38843;SDS011;24596;48.080;8.362;2023-10-13T14:49:21;10.63;;;3.00;;
38843;SDS011;24596;48.080;8.362;2023-10-13T14:51:46;8.70;;;3.23;;
38843;SDS011;24596;48.080;8.362;2023-10-13T14:54:12;9.30;;;3.03;;
38843;SDS011;24596;48.080;8.362;2023-10-13T14:56:39;12.00;;;3.10;;
38843;SDS011;24596;48.080;8.362;2023-10-13T14:59:07;8.75;;;3.05;;
38843;SDS011;24596;48.080;8.362;2023-10-13T15:01:32;10.17;;;2.90;;
38843;SDS011;24596;48.080;8.362;2023-10-13T15:03:57;8.45;;;2.50;;
38843;SDS011;24596;48.080;8.362;2023-10-13T15:06:24;9.45;;;3.15;;
38843;SDS011;24596;48.080;8.362;2023-10-13T15:08:50;10.45;;;2.83;;
38843;SDS011;24596;48.080;8.362;2023-10-13T15:11:16;8.52;;;2.85;;
38843;SDS011;24596;48.080;8.362;2023-10-13T15:13:43;6.47;;;2.42;;
38843;SDS011;24596;48.080;8.362;2023-10-13T15:16:15;8.82;;;3.10;;
38843;SDS011;24596;48.080;8.362;2023-10-13T15:18:42;8.77;;;3.35;;
38843;SDS011;24596;48.080;8.362;2023-10-13T15:21:07;10.43;;;2.70;;
38843;SDS011;24596;48.080;8.362;2023-10-13T15:23:34;8.95;;;2.80;;
38843;SDS011;24596;48.080;8.362;2023-10-13T15:26:07;9.52;;;3.20;;
38843;SDS011;24596;48.080;8.362;2023-10-13T15:28:34;7.03;;;3.05;;
38843;SDS011;24596;48.080;8.362;2023-10-13T15:31:02;11.25;;;3.28;;
38843;SDS011;24596;48.080;8.362;2023-10-13T15:33:35;8.32;;;3.00;;
38843;SDS011;24596;48.080;8.362;2023-10-13T15:36:00;15.70;;;3.80;;
38843;SDS011;24596;48.080;8.362;2023-10-13T15:38:25;11.27;;;3.30;;
38843;SDS011;24596;48.080;8.362;2023-10-13T15:40:52;10.85;;;2.83;;
38843;SDS011;24596;48.080;8.362;2023-10-13T15:43:19;9.77;;;3.55;;